KPMD

Palmdale Usaf Plant 42 Airport

Palmdale, California, USA
METAR KPMD 140153Z 12003KT 10SM CLR 10/M02 A3031 RMK AO2 SLP268 T01001022
Observed Flight Rules
Dec-14 @ 01:53 UTC (an hour ago) Visual Flight Rules
Wind Visibility Clouds
120° at 3 knots 10 miles
  • Clear skies
Temperatures Readings
Current 10°C / 50°F
Dewpoint -2°C / 28°F
Humidity 43%
Altimeter 30.31" Hg
Pressure 1026.8 hPa
Elevation 780
METAR KPMD 140153Z 12003KT 10SM CLR 10/M02 A3031 RMK AO2 SLP268 T01001022
Observed Flight Rules
Dec-14 @ 01:53 UTC
(an hour ago)
VFR
Wind Visibility
120° at 3 knots 10 miles
Clouds
  • Clear skies
Temperature Dewpoint
10°C / 50°F -2°C / 28°F
Humidity Altimeter Pressure
43% 30.31" Hg 1026.8 hPa